PWSweather.com
Personal Weather Stations
Station Observations
KCARIDGE3
Ridgecrest, CA 93555

Ridgecrest, CA 93555

Lat: 35.62083817, Lon: -117.6733017

Elevation: 2315

Station Type:

High Low Average
Temperature 91.8°F33.2°C 65.1°F18.4°C 78.0°F25.6°C
Dew Point 38.7°F3.7°C 11.8°F-11.2°C 31.1°F-0.5°C
Winds 17.0 mph 27.4 kmh Calm Calm 8.0 mph SW12.9 kmh SW
Wind Gusts 21.9 mph35.2 kmh -- 8.0 mph12.9 kmh
Humidity 34% 6% 20%
Pressure -338605.1 mb -338605.1 mb -
Precipitation 0.00 in0.0 mm - -
Hour Temp Dew Point Humidity Winds Wind Gusts Pressure Precip Precip Rate Daily Precip Total
12:02 AM 71.2°F21.8°C 31.5°F-0.3°C 23% 8.9 mph SW14.3 kmh SW 8.1 mph13.0 kmh -338605.1 mb 0.00 in0.0 mm 0.00 in/hr0.0 mm/hr 0.00 in0.0 mm
12:17 AM 70.9°F21.6°C 32.4°F0.2°C 24% 8.9 mph SW14.3 kmh SW 11.0 mph17.7 kmh -338605.1 mb 0.00 in0.0 mm 0.00 in/hr0.0 mm/hr 0.00 in0.0 mm
12:22 AM 70.9°F21.6°C 32.4°F0.2°C 24% 8.9 mph SW14.3 kmh SW 10.1 mph16.3 kmh -338605.1 mb 0.00 in0.0 mm 0.00 in/hr0.0 mm/hr 0.00 in0.0 mm
12:27 AM 70.5°F21.4°C 33.1°F0.6°C 25% 8.9 mph WSW14.3 kmh WSW 8.9 mph14.3 kmh -338605.1 mb 0.00 in0.0 mm 0.00 in/hr0.0 mm/hr 0.00 in0.0 mm
12:32 AM 70.5°F21.4°C 33.1°F0.6°C 25% 10.1 mph SW16.3 kmh SW 14.1 mph22.7 kmh -338605.1 mb 0.00 in0.0 mm 0.00 in/hr0.0 mm/hr 0.00 in0.0 mm
12:37 AM 70.5°F21.4°C 33.1°F0.6°C 25% 11.0 mph SW17.7 kmh SW 6.9 mph11.1 kmh -338605.1 mb 0.00 in0.0 mm 0.00 in/hr0.0 mm/hr 0.00 in0.0 mm
12:47 AM 70.3°F21.3°C 32.9°F0.5°C 25% 10.1 mph SW16.3 kmh SW 8.1 mph13.0 kmh -338605.1 mb 0.00 in0.0 mm 0.00 in/hr0.0 mm/hr 0.00 in0.0 mm
12:52 AM 70.2°F21.2°C 33.6°F0.9°C 26% 10.1 mph SW16.3 kmh SW 13.0 mph20.9 kmh -338605.1 mb 0.00 in0.0 mm 0.00 in/hr0.0 mm/hr 0.00 in0.0 mm
12:57 AM 70.0°F21.1°C 33.4°F0.8°C 26% 10.1 mph SW16.3 kmh SW 13.0 mph20.9 kmh -338605.1 mb 0.00 in0.0 mm 0.00 in/hr0.0 mm/hr 0.00 in0.0 mm
01:02 AM 69.8°F21.0°C 33.4°F0.8°C 26% 10.1 mph SW16.3 kmh SW 10.1 mph16.3 kmh -338605.1 mb 0.00 in0.0 mm 0.00 in/hr0.0 mm/hr 0.00 in0.0 mm
01:07 AM 69.6°F20.9°C 33.3°F0.7°C 26% 10.1 mph WSW16.3 kmh WSW 8.1 mph13.0 kmh -338605.1 mb 0.00 in0.0 mm 0.00 in/hr0.0 mm/hr 0.00 in0.0 mm
01:12 AM 69.6°F20.9°C 33.3°F0.7°C 26% 10.1 mph SW16.3 kmh SW 8.1 mph13.0 kmh -338605.1 mb 0.00 in0.0 mm 0.00 in/hr0.0 mm/hr 0.00 in0.0 mm
01:17 AM 70.0°F21.1°C 32.5°F0.3°C 25% 8.9 mph SW14.3 kmh SW 4.9 mph7.9 kmh -338605.1 mb 0.00 in0.0 mm 0.00 in/hr0.0 mm/hr 0.00 in0.0 mm
01:22 AM 70.0°F21.1°C 32.5°F0.3°C 25% 8.9 mph SW14.3 kmh SW 8.9 mph14.3 kmh -338605.1 mb 0.00 in0.0 mm 0.00 in/hr0.0 mm/hr 0.00 in0.0 mm
01:27 AM 70.0°F21.1°C 33.4°F0.8°C 26% 8.1 mph SW13.0 kmh SW 10.1 mph16.3 kmh -338605.1 mb 0.00 in0.0 mm 0.00 in/hr0.0 mm/hr 0.00 in0.0 mm
01:32 AM 69.6°F20.9°C 34.2°F1.2°C 27% 8.9 mph SW14.3 kmh SW 6.9 mph11.1 kmh -338605.1 mb 0.00 in0.0 mm 0.00 in/hr0.0 mm/hr 0.00 in0.0 mm
01:37 AM 69.6°F20.9°C 34.2°F1.2°C 27% 8.9 mph SW14.3 kmh SW 12.1 mph19.5 kmh -338605.1 mb 0.00 in0.0 mm 0.00 in/hr0.0 mm/hr 0.00 in0.0 mm
01:42 AM 69.4°F20.8°C 34.0°F1.1°C 27% 8.9 mph SW14.3 kmh SW 10.1 mph16.3 kmh -338605.1 mb 0.00 in0.0 mm 0.00 in/hr0.0 mm/hr 0.00 in0.0 mm
01:47 AM 69.1°F20.6°C 34.5°F1.4°C 28% 8.9 mph SW14.3 kmh SW 8.1 mph13.0 kmh -338605.1 mb 0.00 in0.0 mm 0.00 in/hr0.0 mm/hr 0.00 in0.0 mm
01:52 AM 69.1°F20.6°C 34.5°F1.4°C 28% 8.1 mph SW13.0 kmh SW 12.1 mph19.5 kmh -338605.1 mb 0.00 in0.0 mm 0.00 in/hr0.0 mm/hr 0.00 in0.0 mm
01:57 AM 69.3°F20.7°C 33.8°F1.0°C 27% 8.1 mph SW13.0 kmh SW 8.1 mph13.0 kmh -338605.1 mb 0.00 in0.0 mm 0.00 in/hr0.0 mm/hr 0.00 in0.0 mm
02:02 AM 69.1°F20.6°C 33.6°F0.9°C 27% 8.1 mph SW13.0 kmh SW 6.0 mph9.7 kmh -338605.1 mb 0.00 in0.0 mm 0.00 in/hr0.0 mm/hr 0.00 in0.0 mm
02:12 AM 68.7°F20.4°C 33.4°F0.8°C 27% 6.0 mph SW9.7 kmh SW 6.0 mph9.7 kmh -338605.1 mb 0.00 in0.0 mm 0.00 in/hr0.0 mm/hr 0.00 in0.0 mm
02:17 AM 68.7°F20.4°C 33.4°F0.8°C 27% 6.0 mph SW9.7 kmh SW 8.1 mph13.0 kmh -338605.1 mb 0.00 in0.0 mm 0.00 in/hr0.0 mm/hr 0.00 in0.0 mm
02:22 AM 69.1°F20.6°C 33.6°F0.9°C 27% 6.9 mph SW11.1 kmh SW 6.9 mph11.1 kmh -338605.1 mb 0.00 in0.0 mm 0.00 in/hr0.0 mm/hr 0.00 in0.0 mm
02:27 AM 69.3°F20.7°C 32.9°F0.5°C 26% 8.9 mph SW14.3 kmh SW 8.9 mph14.3 kmh -338605.1 mb 0.00 in0.0 mm 0.00 in/hr0.0 mm/hr 0.00 in0.0 mm
02:32 AM 69.1°F20.6°C 33.6°F0.9°C 27% 8.9 mph SSW14.3 kmh SSW 8.9 mph14.3 kmh -338605.1 mb 0.00 in0.0 mm 0.00 in/hr0.0 mm/hr 0.00 in0.0 mm
02:47 AM 69.1°F20.6°C 34.5°F1.4°C 28% 8.9 mph SW14.3 kmh SW 8.1 mph13.0 kmh -338605.1 mb 0.00 in0.0 mm 0.00 in/hr0.0 mm/hr 0.00 in0.0 mm
02:52 AM 69.3°F20.7°C 33.8°F1.0°C 27% 10.1 mph SW16.3 kmh SW 4.9 mph7.9 kmh -338605.1 mb 0.00 in0.0 mm 0.00 in/hr0.0 mm/hr 0.00 in0.0 mm
02:57 AM 69.3°F20.7°C 33.8°F1.0°C 27% 11.0 mph SW17.7 kmh SW 8.9 mph14.3 kmh -338605.1 mb 0.00 in0.0 mm 0.00 in/hr0.0 mm/hr 0.00 in0.0 mm
03:02 AM 69.1°F20.6°C 34.5°F1.4°C 28% 10.1 mph SW16.3 kmh SW 8.1 mph13.0 kmh -338605.1 mb 0.00 in0.0 mm 0.00 in/hr0.0 mm/hr 0.00 in0.0 mm
03:07 AM 68.7°F20.4°C 36.0°F2.2°C 30% 10.1 mph WSW16.3 kmh WSW 11.0 mph17.7 kmh -338605.1 mb 0.00 in0.0 mm 0.00 in/hr0.0 mm/hr 0.00 in0.0 mm
03:12 AM 68.5°F20.3°C 36.0°F2.2°C 30% 10.1 mph SW16.3 kmh SW 10.1 mph16.3 kmh -338605.1 mb 0.00 in0.0 mm 0.00 in/hr0.0 mm/hr 0.00 in0.0 mm
03:27 AM 68.2°F20.1°C 36.3°F2.4°C 31% 8.9 mph WSW14.3 kmh WSW 6.9 mph11.1 kmh -338605.1 mb 0.00 in0.0 mm 0.00 in/hr0.0 mm/hr 0.00 in0.0 mm
03:32 AM 67.8°F19.9°C 36.9°F2.7°C 32% 8.9 mph SSW14.3 kmh SSW 13.0 mph20.9 kmh -338605.1 mb 0.00 in0.0 mm 0.00 in/hr0.0 mm/hr 0.00 in0.0 mm
03:37 AM 67.8°F19.9°C 36.9°F2.7°C 32% 11.0 mph SW17.7 kmh SW 11.0 mph17.7 kmh -338605.1 mb 0.00 in0.0 mm 0.00 in/hr0.0 mm/hr 0.00 in0.0 mm
03:42 AM 68.2°F20.1°C 35.6°F2.0°C 30% 12.1 mph SW19.5 kmh SW 13.0 mph20.9 kmh -338605.1 mb 0.00 in0.0 mm 0.00 in/hr0.0 mm/hr 0.00 in0.0 mm
03:47 AM 68.5°F20.3°C 36.0°F2.2°C 30% 11.0 mph SW17.7 kmh SW 8.9 mph14.3 kmh -338605.1 mb 0.00 in0.0 mm 0.00 in/hr0.0 mm/hr 0.00 in0.0 mm
03:52 AM 68.5°F20.3°C 35.1°F1.7°C 29% 11.0 mph WSW17.7 kmh WSW 8.9 mph14.3 kmh -338605.1 mb 0.00 in0.0 mm 0.00 in/hr0.0 mm/hr 0.00 in0.0 mm
03:57 AM 68.5°F20.3°C 34.2°F1.2°C 28% 10.1 mph SW16.3 kmh SW 12.1 mph19.5 kmh -338605.1 mb 0.00 in0.0 mm 0.00 in/hr0.0 mm/hr 0.00 in0.0 mm
04:02 AM 68.4°F20.2°C 34.0°F1.1°C 28% 10.1 mph SW16.3 kmh SW 8.9 mph14.3 kmh -338605.1 mb 0.00 in0.0 mm 0.00 in/hr0.0 mm/hr 0.00 in0.0 mm
04:07 AM 68.4°F20.2°C 35.8°F2.1°C 30% 8.9 mph WSW14.3 kmh WSW 14.1 mph22.7 kmh -338605.1 mb 0.00 in0.0 mm 0.00 in/hr0.0 mm/hr 0.00 in0.0 mm
04:12 AM 68.2°F20.1°C 35.6°F2.0°C 30% 10.1 mph WSW16.3 kmh WSW 8.9 mph14.3 kmh -338605.1 mb 0.00 in0.0 mm 0.00 in/hr0.0 mm/hr 0.00 in0.0 mm
04:17 AM 68.2°F20.1°C 34.7°F1.5°C 29% 10.1 mph SW16.3 kmh SW 8.1 mph13.0 kmh -338605.1 mb 0.00 in0.0 mm 0.00 in/hr0.0 mm/hr 0.00 in0.0 mm
04:22 AM 68.2°F20.1°C 34.7°F1.5°C 29% 8.9 mph SW14.3 kmh SW 11.0 mph17.7 kmh -338605.1 mb 0.00 in0.0 mm 0.00 in/hr0.0 mm/hr 0.00 in0.0 mm
04:27 AM 68.2°F20.1°C 34.7°F1.5°C 29% 8.9 mph SW14.3 kmh SW 6.9 mph11.1 kmh -338605.1 mb 0.00 in0.0 mm 0.00 in/hr0.0 mm/hr 0.00 in0.0 mm
04:32 AM 68.0°F20.0°C 34.5°F1.4°C 29% 8.9 mph SW14.3 kmh SW 6.9 mph11.1 kmh -338605.1 mb 0.00 in0.0 mm 0.00 in/hr0.0 mm/hr 0.00 in0.0 mm
04:37 AM 67.8°F19.9°C 34.3°F1.3°C 29% 8.1 mph SW13.0 kmh SW 6.0 mph9.7 kmh -338605.1 mb 0.00 in0.0 mm 0.00 in/hr0.0 mm/hr 0.00 in0.0 mm
04:42 AM 67.8°F19.9°C 34.3°F1.3°C 29% 8.1 mph SW13.0 kmh SW 11.0 mph17.7 kmh -338605.1 mb 0.00 in0.0 mm 0.00 in/hr0.0 mm/hr 0.00 in0.0 mm
04:47 AM 67.8°F19.9°C 34.3°F1.3°C 29% 8.9 mph SW14.3 kmh SW 8.9 mph14.3 kmh -338605.1 mb 0.00 in0.0 mm 0.00 in/hr0.0 mm/hr 0.00 in0.0 mm
04:52 AM 67.6°F19.8°C 35.1°F1.7°C 30% 8.9 mph SW14.3 kmh SW 10.1 mph16.3 kmh -338605.1 mb 0.00 in0.0 mm 0.00 in/hr0.0 mm/hr 0.00 in0.0 mm
04:57 AM 67.6°F19.8°C 35.1°F1.7°C 30% 8.1 mph SW13.0 kmh SW 10.1 mph16.3 kmh -338605.1 mb 0.00 in0.0 mm 0.00 in/hr0.0 mm/hr 0.00 in0.0 mm
05:02 AM 67.5°F19.7°C 34.9°F1.6°C 30% 8.1 mph SSW13.0 kmh SSW 6.9 mph11.1 kmh -338605.1 mb 0.00 in0.0 mm 0.00 in/hr0.0 mm/hr 0.00 in0.0 mm
05:07 AM 67.1°F19.5°C 35.4°F1.9°C 31% 6.9 mph SW11.1 kmh SW 10.1 mph16.3 kmh -338605.1 mb 0.00 in0.0 mm 0.00 in/hr0.0 mm/hr 0.00 in0.0 mm
05:12 AM 67.3°F19.6°C 35.6°F2.0°C 31% 6.9 mph SSW11.1 kmh SSW 8.1 mph13.0 kmh -338605.1 mb 0.00 in0.0 mm 0.00 in/hr0.0 mm/hr 0.00 in0.0 mm
05:17 AM 66.9°F19.4°C 35.2°F1.8°C 31% 6.9 mph SW11.1 kmh SW 6.0 mph9.7 kmh -338605.1 mb 0.00 in0.0 mm 0.00 in/hr0.0 mm/hr 0.00 in0.0 mm
05:22 AM 66.6°F19.2°C 35.8°F2.1°C 32% 6.0 mph WSW9.7 kmh WSW 6.9 mph11.1 kmh -338605.1 mb 0.00 in0.0 mm 0.00 in/hr0.0 mm/hr 0.00 in0.0 mm
05:27 AM 66.4°F19.1°C 35.6°F2.0°C 32% 6.0 mph W9.7 kmh W 6.0 mph9.7 kmh -338605.1 mb 0.00 in0.0 mm 0.00 in/hr0.0 mm/hr 0.00 in0.0 mm
05:32 AM 66.4°F19.1°C 37.2°F2.9°C 34% 6.9 mph W11.1 kmh W 6.0 mph9.7 kmh -338605.1 mb 0.00 in0.0 mm 0.00 in/hr0.0 mm/hr 0.00 in0.0 mm
05:37 AM 65.8°F18.8°C 36.7°F2.6°C 34% 6.0 mph WSW9.7 kmh WSW 6.0 mph9.7 kmh -338605.1 mb 0.00 in0.0 mm 0.00 in/hr0.0 mm/hr 0.00 in0.0 mm
05:42 AM 65.1°F18.4°C 33.8°F1.0°C 31% 4.9 mph W7.9 kmh W 4.0 mph6.4 kmh -338605.1 mb 0.00 in0.0 mm 0.00 in/hr0.0 mm/hr 0.00 in0.0 mm
05:47 AM 65.7°F18.7°C 33.4°F0.8°C 30% 4.9 mph W7.9 kmh W 4.0 mph6.4 kmh -338605.1 mb 0.00 in0.0 mm 0.00 in/hr0.0 mm/hr 0.00 in0.0 mm
05:52 AM 66.2°F19.0°C 34.7°F1.5°C 31% 4.9 mph W7.9 kmh W 6.9 mph11.1 kmh -338605.1 mb 0.00 in0.0 mm 0.00 in/hr0.0 mm/hr 0.00 in0.0 mm
05:57 AM 66.4°F19.1°C 34.9°F1.6°C 31% 4.9 mph W7.9 kmh W 4.0 mph6.4 kmh -338605.1 mb 0.00 in0.0 mm 0.00 in/hr0.0 mm/hr 0.00 in0.0 mm
06:02 AM 66.7°F19.3°C 34.3°F1.3°C 30% 4.0 mph W6.4 kmh W 2.0 mph3.2 kmh -338605.1 mb 0.00 in0.0 mm 0.00 in/hr0.0 mm/hr 0.00 in0.0 mm
06:07 AM 66.7°F19.3°C 34.3°F1.3°C 30% 2.0 mph W3.2 kmh W 2.0 mph3.2 kmh -338605.1 mb 0.00 in0.0 mm 0.00 in/hr0.0 mm/hr 0.00 in0.0 mm
06:12 AM 66.9°F19.4°C 35.2°F1.8°C 31% 0.9 mph W1.4 kmh W 0.9 mph1.4 kmh -338605.1 mb 0.00 in0.0 mm 0.00 in/hr0.0 mm/hr 0.00 in0.0 mm
06:17 AM 67.3°F19.6°C 35.6°F2.0°C 31% 0.9 mph W1.4 kmh W 0.9 mph1.4 kmh -338605.1 mb 0.00 in0.0 mm 0.00 in/hr0.0 mm/hr 0.00 in0.0 mm
06:22 AM 67.3°F19.6°C 35.6°F2.0°C 31% 2.0 mph W3.2 kmh W 4.0 mph6.4 kmh -338605.1 mb 0.00 in0.0 mm 0.00 in/hr0.0 mm/hr 0.00 in0.0 mm
06:27 AM 66.7°F19.3°C 34.3°F1.3°C 30% 4.0 mph WNW6.4 kmh WNW 4.9 mph7.9 kmh -338605.1 mb 0.00 in0.0 mm 0.00 in/hr0.0 mm/hr 0.00 in0.0 mm
06:32 AM 66.6°F19.2°C 33.3°F0.7°C 29% 4.9 mph W7.9 kmh W 6.0 mph9.7 kmh -338605.1 mb 0.00 in0.0 mm 0.00 in/hr0.0 mm/hr 0.00 in0.0 mm
06:37 AM 66.9°F19.4°C 32.7°F0.4°C 28% 4.9 mph WNW7.9 kmh WNW 2.0 mph3.2 kmh -338605.1 mb 0.00 in0.0 mm 0.00 in/hr0.0 mm/hr 0.00 in0.0 mm
06:42 AM 67.5°F19.7°C 32.4°F0.2°C 27% 2.9 mph WNW4.7 kmh WNW -- -338605.1 mb 0.00 in0.0 mm 0.00 in/hr0.0 mm/hr 0.00 in0.0 mm
06:47 AM 68.2°F20.1°C 33.8°F1.0°C 28% 2.0 mph NW3.2 kmh NW -- -338605.1 mb 0.00 in0.0 mm 0.00 in/hr0.0 mm/hr 0.00 in0.0 mm
06:52 AM 68.9°F20.5°C 33.6°F0.9°C 27% Calm Calm -- -338605.1 mb 0.00 in0.0 mm 0.00 in/hr0.0 mm/hr 0.00 in0.0 mm
07:02 AM 70.2°F21.2°C 33.6°F0.9°C 26% 0.9 mph NNW1.4 kmh NNW 0.9 mph1.4 kmh -338605.1 mb 0.00 in0.0 mm 0.00 in/hr0.0 mm/hr 0.00 in0.0 mm
07:07 AM 69.8°F21.0°C 33.4°F0.8°C 26% 0.9 mph NNW1.4 kmh NNW 0.9 mph1.4 kmh -338605.1 mb 0.00 in0.0 mm 0.00 in/hr0.0 mm/hr 0.00 in0.0 mm
07:12 AM 70.0°F21.1°C 34.5°F1.4°C 27% 0.9 mph NNW1.4 kmh NNW 2.0 mph3.2 kmh -338605.1 mb 0.00 in0.0 mm 0.00 in/hr0.0 mm/hr 0.00 in0.0 mm
07:17 AM 70.5°F21.4°C 34.0°F1.1°C 26% 0.9 mph NNW1.4 kmh NNW -- -338605.1 mb 0.00 in0.0 mm 0.00 in/hr0.0 mm/hr 0.00 in0.0 mm
07:22 AM 72.5°F22.5°C 35.6°F2.0°C 26% 0.9 mph NNW1.4 kmh NNW 2.0 mph3.2 kmh -338605.1 mb 0.00 in0.0 mm 0.00 in/hr0.0 mm/hr 0.00 in0.0 mm
07:27 AM 72.9°F22.7°C 35.1°F1.7°C 25% 2.0 mph NNW3.2 kmh NNW 2.0 mph3.2 kmh -338605.1 mb 0.00 in0.0 mm 0.00 in/hr0.0 mm/hr 0.00 in0.0 mm
07:32 AM 73.4°F23.0°C 35.4°F1.9°C 25% 2.0 mph NNW3.2 kmh NNW 2.0 mph3.2 kmh -338605.1 mb 0.00 in0.0 mm 0.00 in/hr0.0 mm/hr 0.00 in0.0 mm
07:37 AM 74.7°F23.7°C 35.4°F1.9°C 24% 2.0 mph NNW3.2 kmh NNW 2.0 mph3.2 kmh -338605.1 mb 0.00 in0.0 mm 0.00 in/hr0.0 mm/hr 0.00 in0.0 mm
07:42 AM 74.7°F23.7°C 35.4°F1.9°C 24% 0.9 mph NNW1.4 kmh NNW -- -338605.1 mb 0.00 in0.0 mm 0.00 in/hr0.0 mm/hr 0.00 in0.0 mm
07:47 AM 74.5°F23.6°C 36.3°F2.4°C 25% 0.9 mph NNW1.4 kmh NNW -- -338605.1 mb 0.00 in0.0 mm 0.00 in/hr0.0 mm/hr 0.00 in0.0 mm
07:52 AM 75.7°F24.3°C 36.3°F2.4°C 24% 0.9 mph NE1.4 kmh NE 2.9 mph4.7 kmh -338605.1 mb 0.00 in0.0 mm 0.00 in/hr0.0 mm/hr 0.00 in0.0 mm
07:57 AM 75.9°F24.4°C 35.4°F1.9°C 23% 2.0 mph NE3.2 kmh NE 0.9 mph1.4 kmh -338605.1 mb 0.00 in0.0 mm 0.00 in/hr0.0 mm/hr 0.00 in0.0 mm
08:02 AM 76.6°F24.8°C 36.1°F2.3°C 23% 0.9 mph NE1.4 kmh NE 2.0 mph3.2 kmh -338605.1 mb 0.00 in0.0 mm 0.00 in/hr0.0 mm/hr 0.00 in0.0 mm
08:07 AM 76.6°F24.8°C 34.9°F1.6°C 22% 0.9 mph NE1.4 kmh NE 2.9 mph4.7 kmh -338605.1 mb 0.00 in0.0 mm 0.00 in/hr0.0 mm/hr 0.00 in0.0 mm
08:12 AM 77.2°F25.1°C 35.4°F1.9°C 22% 2.0 mph NNE3.2 kmh NNE 0.9 mph1.4 kmh -338605.1 mb 0.00 in0.0 mm 0.00 in/hr0.0 mm/hr 0.00 in0.0 mm
08:17 AM 77.2°F25.1°C 36.5°F2.5°C 23% 2.0 mph NNE3.2 kmh NNE -- -338605.1 mb 0.00 in0.0 mm 0.00 in/hr0.0 mm/hr 0.00 in0.0 mm
08:22 AM 77.5°F25.3°C 35.8°F2.1°C 22% 0.9 mph NNE1.4 kmh NNE 2.0 mph3.2 kmh -338605.1 mb 0.00 in0.0 mm 0.00 in/hr0.0 mm/hr 0.00 in0.0 mm
08:27 AM 76.8°F24.9°C 37.2°F2.9°C 24% 0.9 mph NNE1.4 kmh NNE -- -338605.1 mb 0.00 in0.0 mm 0.00 in/hr0.0 mm/hr 0.00 in0.0 mm
08:32 AM 78.1°F25.6°C 36.1°F2.3°C 22% 0.9 mph NNE1.4 kmh NNE 2.9 mph4.7 kmh -338605.1 mb 0.00 in0.0 mm 0.00 in/hr0.0 mm/hr 0.00 in0.0 mm
08:37 AM 79.2°F26.2°C 34.7°F1.5°C 20% 2.0 mph NE3.2 kmh NE 2.9 mph4.7 kmh -338605.1 mb 0.00 in0.0 mm 0.00 in/hr0.0 mm/hr 0.00 in0.0 mm
08:42 AM 79.5°F26.4°C 34.9°F1.6°C 20% 2.9 mph NNE4.7 kmh NNE 0.9 mph1.4 kmh -338605.1 mb 0.00 in0.0 mm 0.00 in/hr0.0 mm/hr 0.00 in0.0 mm
08:47 AM 79.3°F26.3°C 34.7°F1.5°C 20% 2.0 mph NE3.2 kmh NE -- -338605.1 mb 0.00 in0.0 mm 0.00 in/hr0.0 mm/hr 0.00 in0.0 mm
08:52 AM 79.0°F26.1°C 34.5°F1.4°C 20% 0.9 mph NE1.4 kmh NE -- -338605.1 mb 0.00 in0.0 mm 0.00 in/hr0.0 mm/hr 0.00 in0.0 mm
08:57 AM 79.2°F26.2°C 34.7°F1.5°C 20% 0.9 mph NE1.4 kmh NE -- -338605.1 mb 0.00 in0.0 mm 0.00 in/hr0.0 mm/hr 0.00 in0.0 mm
09:02 AM 80.4°F26.9°C 34.3°F1.3°C 19% Calm Calm 0.9 mph1.4 kmh -338605.1 mb 0.00 in0.0 mm 0.00 in/hr0.0 mm/hr 0.00 in0.0 mm
09:07 AM 80.6°F27.0°C 34.5°F1.4°C 19% 0.9 mph N1.4 kmh N 2.9 mph4.7 kmh -338605.1 mb 0.00 in0.0 mm 0.00 in/hr0.0 mm/hr 0.00 in0.0 mm
09:12 AM 79.9°F26.6°C 34.0°F1.1°C 19% 2.9 mph 4.7 kmh 0.9 mph1.4 kmh -338605.1 mb 0.00 in0.0 mm 0.00 in/hr0.0 mm/hr 0.00 in0.0 mm
09:17 AM 79.9°F26.6°C 34.0°F1.1°C 19% 2.9 mph NW4.7 kmh NW 2.9 mph4.7 kmh -338605.1 mb 0.00 in0.0 mm 0.00 in/hr0.0 mm/hr 0.00 in0.0 mm
09:22 AM 80.8°F27.1°C 33.3°F0.7°C 18% 2.0 mph W3.2 kmh W 4.0 mph6.4 kmh -338605.1 mb 0.00 in0.0 mm 0.00 in/hr0.0 mm/hr 0.00 in0.0 mm
09:27 AM 80.8°F27.1°C 33.3°F0.7°C 18% 2.0 mph NW3.2 kmh NW 0.9 mph1.4 kmh -338605.1 mb 0.00 in0.0 mm 0.00 in/hr0.0 mm/hr 0.00 in0.0 mm
09:32 AM 82.0°F27.8°C 34.3°F1.3°C 18% 2.0 mph SW3.2 kmh SW 0.9 mph1.4 kmh -338605.1 mb 0.00 in0.0 mm 0.00 in/hr0.0 mm/hr 0.00 in0.0 mm
09:37 AM 82.4°F28.0°C 33.3°F0.7°C 17% 0.9 mph NW1.4 kmh NW 2.9 mph4.7 kmh -338605.1 mb 0.00 in0.0 mm 0.00 in/hr0.0 mm/hr 0.00 in0.0 mm
09:42 AM 84.2°F29.0°C 34.7°F1.5°C 17% 2.0 mph SE3.2 kmh SE 2.0 mph3.2 kmh -338605.1 mb 0.00 in0.0 mm 0.00 in/hr0.0 mm/hr 0.00 in0.0 mm
09:47 AM 84.9°F29.4°C 33.8°F1.0°C 16% 2.0 mph SE3.2 kmh SE 0.9 mph1.4 kmh -338605.1 mb 0.00 in0.0 mm 0.00 in/hr0.0 mm/hr 0.00 in0.0 mm
09:52 AM 83.5°F28.6°C 35.6°F2.0°C 18% 0.9 mph ESE1.4 kmh ESE 0.9 mph1.4 kmh -338605.1 mb 0.00 in0.0 mm 0.00 in/hr0.0 mm/hr 0.00 in0.0 mm
09:57 AM 82.8°F28.2°C 32.0°F0.0°C 16% 2.0 mph NW3.2 kmh NW 2.0 mph3.2 kmh -338605.1 mb 0.00 in0.0 mm 0.00 in/hr0.0 mm/hr 0.00 in0.0 mm
10:02 AM 82.8°F28.2°C 32.0°F0.0°C 16% 2.9 mph NW4.7 kmh NW 2.0 mph3.2 kmh -338605.1 mb 0.00 in0.0 mm 0.00 in/hr0.0 mm/hr 0.00 in0.0 mm
10:07 AM 83.5°F28.6°C 34.2°F1.2°C 17% 2.0 mph NNW3.2 kmh NNW 2.0 mph3.2 kmh -338605.1 mb 0.00 in0.0 mm 0.00 in/hr0.0 mm/hr 0.00 in0.0 mm
10:12 AM 84.0°F28.9°C 33.1°F0.6°C 16% 2.0 mph NE3.2 kmh NE 2.0 mph3.2 kmh -338605.1 mb 0.00 in0.0 mm 0.00 in/hr0.0 mm/hr 0.00 in0.0 mm
10:17 AM 84.9°F29.4°C 22.3°F-5.4°C 10% 2.9 mph S4.7 kmh S 16.1 mph25.9 kmh -338605.1 mb 0.00 in0.0 mm 0.00 in/hr0.0 mm/hr 0.00 in0.0 mm
10:22 AM 86.0°F30.0°C 17.8°F-7.9°C 8% 6.9 mph S11.1 kmh S 13.0 mph20.9 kmh -338605.1 mb 0.00 in0.0 mm 0.00 in/hr0.0 mm/hr 0.00 in0.0 mm
10:27 AM 86.2°F30.1°C 20.7°F-6.3°C 9% 11.0 mph SW17.7 kmh SW 8.9 mph14.3 kmh -338605.1 mb 0.00 in0.0 mm 0.00 in/hr0.0 mm/hr 0.00 in0.0 mm
10:32 AM 86.2°F30.1°C 20.7°F-6.3°C 9% 11.0 mph S17.7 kmh S 12.1 mph19.5 kmh -338605.1 mb 0.00 in0.0 mm 0.00 in/hr0.0 mm/hr 0.00 in0.0 mm
10:37 AM 86.9°F30.5°C 21.2°F-6.0°C 9% 10.1 mph SSE16.3 kmh SSE 10.1 mph16.3 kmh -338605.1 mb 0.00 in0.0 mm 0.00 in/hr0.0 mm/hr 0.00 in0.0 mm
10:42 AM 87.3°F30.7°C 21.6°F-5.8°C 9% 10.1 mph SW16.3 kmh SW 11.0 mph17.7 kmh -338605.1 mb 0.00 in0.0 mm 0.00 in/hr0.0 mm/hr 0.00 in0.0 mm
10:47 AM 87.3°F30.7°C 21.6°F-5.8°C 9% 12.1 mph S19.5 kmh S 15.0 mph24.1 kmh -338605.1 mb 0.00 in0.0 mm 0.00 in/hr0.0 mm/hr 0.00 in0.0 mm
10:52 AM 86.7°F30.4°C 15.3°F-9.3°C 7% 14.1 mph S22.7 kmh S 8.9 mph14.3 kmh -338605.1 mb 0.00 in0.0 mm 0.00 in/hr0.0 mm/hr 0.00 in0.0 mm
10:57 AM 86.5°F30.3°C 15.3°F-9.3°C 7% 15.0 mph SSE24.1 kmh SSE 6.0 mph9.7 kmh -338605.1 mb 0.00 in0.0 mm 0.00 in/hr0.0 mm/hr 0.00 in0.0 mm
11:02 AM 87.1°F30.6°C 18.7°F-7.4°C 8% 12.1 mph SSW19.5 kmh SSW 17.0 mph27.4 kmh -338605.1 mb 0.00 in0.0 mm 0.00 in/hr0.0 mm/hr 0.00 in0.0 mm
11:07 AM 86.5°F30.3°C 15.3°F-9.3°C 7% 11.0 mph SSW17.7 kmh SSW 8.9 mph14.3 kmh -338605.1 mb 0.00 in0.0 mm 0.00 in/hr0.0 mm/hr 0.00 in0.0 mm
11:12 AM 87.1°F30.6°C 15.6°F-9.1°C 7% 13.0 mph SSW20.9 kmh SSW 12.1 mph19.5 kmh -338605.1 mb 0.00 in0.0 mm 0.00 in/hr0.0 mm/hr 0.00 in0.0 mm
11:17 AM 87.3°F30.7°C 15.6°F-9.1°C 7% 12.1 mph SSW19.5 kmh SSW 13.0 mph20.9 kmh -338605.1 mb 0.00 in0.0 mm 0.00 in/hr0.0 mm/hr 0.00 in0.0 mm
11:22 AM 87.4°F30.8°C 12.4°F-10.9°C 6% 13.0 mph S20.9 kmh S 16.1 mph25.9 kmh -338605.1 mb 0.00 in0.0 mm 0.00 in/hr0.0 mm/hr 0.00 in0.0 mm
11:27 AM 87.4°F30.8°C 15.8°F-9.0°C 7% 15.0 mph S24.1 kmh S 8.9 mph14.3 kmh -338605.1 mb 0.00 in0.0 mm 0.00 in/hr0.0 mm/hr 0.00 in0.0 mm
11:32 AM 87.4°F30.8°C 12.4°F-10.9°C 6% 13.0 mph S20.9 kmh S 17.9 mph28.8 kmh -338605.1 mb 0.00 in0.0 mm 0.00 in/hr0.0 mm/hr 0.00 in0.0 mm
11:37 AM 86.9°F30.5°C 11.8°F-11.2°C 6% 14.1 mph S22.7 kmh S 13.0 mph20.9 kmh -338605.1 mb 0.00 in0.0 mm 0.00 in/hr0.0 mm/hr 0.00 in0.0 mm
11:42 AM 87.3°F30.7°C 18.9°F-7.3°C 8% 16.1 mph S25.9 kmh S 21.9 mph35.2 kmh -338605.1 mb 0.00 in0.0 mm 0.00 in/hr0.0 mm/hr 0.00 in0.0 mm
11:47 AM 87.4°F30.8°C 24.3°F-4.3°C 10% 14.1 mph S22.7 kmh S 10.1 mph16.3 kmh -338605.1 mb 0.00 in0.0 mm 0.00 in/hr0.0 mm/hr 0.00 in0.0 mm
11:52 AM 88.2°F31.2°C 19.4°F-7.0°C 8% 13.0 mph S20.9 kmh S 11.0 mph17.7 kmh -338605.1 mb 0.00 in0.0 mm 0.00 in/hr0.0 mm/hr 0.00 in0.0 mm
11:57 AM 88.5°F31.4°C 16.7°F-8.5°C 7% 13.0 mph S20.9 kmh S 12.1 mph19.5 kmh -338605.1 mb 0.00 in0.0 mm 0.00 in/hr0.0 mm/hr 0.00 in0.0 mm
12:02 PM 88.9°F31.6°C 16.9°F-8.4°C 7% 12.1 mph S19.5 kmh S 14.1 mph22.7 kmh -338605.1 mb 0.00 in0.0 mm 0.00 in/hr0.0 mm/hr 0.00 in0.0 mm
12:07 PM 88.9°F31.6°C 22.8°F-5.1°C 9% 12.1 mph SSW19.5 kmh SSW 8.9 mph14.3 kmh -338605.1 mb 0.00 in0.0 mm 0.00 in/hr0.0 mm/hr 0.00 in0.0 mm
12:12 PM 88.5°F31.4°C 16.7°F-8.5°C 7% 10.1 mph S16.3 kmh S 6.0 mph9.7 kmh -338605.1 mb 0.00 in0.0 mm 0.00 in/hr0.0 mm/hr 0.00 in0.0 mm
12:17 PM 89.1°F31.7°C 20.1°F-6.6°C 8% 11.0 mph S17.7 kmh S 16.1 mph25.9 kmh -338605.1 mb 0.00 in0.0 mm 0.00 in/hr0.0 mm/hr 0.00 in0.0 mm
12:22 PM 89.1°F31.7°C 20.1°F-6.6°C 8% 13.0 mph S20.9 kmh S 11.0 mph17.7 kmh -338605.1 mb 0.00 in0.0 mm 0.00 in/hr0.0 mm/hr 0.00 in0.0 mm
12:27 PM 89.4°F31.9°C 23.2°F-4.9°C 9% 8.9 mph SSW14.3 kmh SSW 6.9 mph11.1 kmh -338605.1 mb 0.00 in0.0 mm 0.00 in/hr0.0 mm/hr 0.00 in0.0 mm
12:32 PM 90.0°F32.2°C 23.5°F-4.7°C 9% 8.9 mph S14.3 kmh S 12.1 mph19.5 kmh -338605.1 mb 0.00 in0.0 mm 0.00 in/hr0.0 mm/hr 0.00 in0.0 mm
12:37 PM 90.0°F32.2°C 20.8°F-6.2°C 8% 10.1 mph SE16.3 kmh SE 12.1 mph19.5 kmh -338605.1 mb 0.00 in0.0 mm 0.00 in/hr0.0 mm/hr 0.00 in0.0 mm
12:42 PM 90.1°F32.3°C 23.7°F-4.6°C 9% 8.9 mph S14.3 kmh S 19.0 mph30.6 kmh -338605.1 mb 0.00 in0.0 mm 0.00 in/hr0.0 mm/hr 0.00 in0.0 mm
12:47 PM 89.8°F32.1°C 23.4°F-4.8°C 9% 10.1 mph SE16.3 kmh SE 8.9 mph14.3 kmh -338605.1 mb 0.00 in0.0 mm 0.00 in/hr0.0 mm/hr 0.00 in0.0 mm
12:52 PM 89.8°F32.1°C 23.4°F-4.8°C 9% 12.1 mph S19.5 kmh S 15.0 mph24.1 kmh -338605.1 mb 0.00 in0.0 mm 0.00 in/hr0.0 mm/hr 0.00 in0.0 mm
12:57 PM 89.8°F32.1°C 23.4°F-4.8°C 9% 12.1 mph SSE19.5 kmh SSE 10.1 mph16.3 kmh -338605.1 mb 0.00 in0.0 mm 0.00 in/hr0.0 mm/hr 0.00 in0.0 mm
01:02 PM 90.1°F32.3°C 23.7°F-4.6°C 9% 12.1 mph SSW19.5 kmh SSW 14.1 mph22.7 kmh -338605.1 mb 0.00 in0.0 mm 0.00 in/hr0.0 mm/hr 0.00 in0.0 mm
01:07 PM 89.8°F32.1°C 25.9°F-3.4°C 10% 13.0 mph S20.9 kmh S 14.1 mph22.7 kmh -338605.1 mb 0.00 in0.0 mm 0.00 in/hr0.0 mm/hr 0.00 in0.0 mm
01:12 PM 90.1°F32.3°C 26.2°F-3.2°C 10% 12.1 mph S19.5 kmh S 6.0 mph9.7 kmh -338605.1 mb 0.00 in0.0 mm 0.00 in/hr0.0 mm/hr 0.00 in0.0 mm
01:17 PM 90.1°F32.3°C 26.2°F-3.2°C 10% 10.1 mph SSW16.3 kmh SSW 6.9 mph11.1 kmh -338605.1 mb 0.00 in0.0 mm 0.00 in/hr0.0 mm/hr 0.00 in0.0 mm
01:22 PM 91.2°F32.9°C 27.1°F-2.7°C 10% 10.1 mph S16.3 kmh S 14.1 mph22.7 kmh -338605.1 mb 0.00 in0.0 mm 0.00 in/hr0.0 mm/hr 0.00 in0.0 mm
01:27 PM 90.3°F32.4°C 28.8°F-1.8°C 11% 11.0 mph SSW17.7 kmh SSW 10.1 mph16.3 kmh -338605.1 mb 0.00 in0.0 mm 0.00 in/hr0.0 mm/hr 0.00 in0.0 mm
01:32 PM 90.9°F32.7°C 29.1°F-1.6°C 11% 12.1 mph SSW19.5 kmh SSW 10.1 mph16.3 kmh -338605.1 mb 0.00 in0.0 mm 0.00 in/hr0.0 mm/hr 0.00 in0.0 mm
01:37 PM 90.7°F32.6°C 28.9°F-1.7°C 11% 10.1 mph SSE16.3 kmh SSE 8.1 mph13.0 kmh -338605.1 mb 0.00 in0.0 mm 0.00 in/hr0.0 mm/hr 0.00 in0.0 mm
01:42 PM 91.0°F32.8°C 29.3°F-1.5°C 11% 8.9 mph S14.3 kmh S 13.0 mph20.9 kmh -338605.1 mb 0.00 in0.0 mm 0.00 in/hr0.0 mm/hr 0.00 in0.0 mm
01:47 PM 91.0°F32.8°C 29.3°F-1.5°C 11% 12.1 mph SW19.5 kmh SW 6.0 mph9.7 kmh -338605.1 mb 0.00 in0.0 mm 0.00 in/hr0.0 mm/hr 0.00 in0.0 mm
01:52 PM 91.0°F32.8°C 31.5°F-0.3°C 12% 12.1 mph SW19.5 kmh SW 10.1 mph16.3 kmh -338605.1 mb 0.00 in0.0 mm 0.00 in/hr0.0 mm/hr 0.00 in0.0 mm
01:57 PM 91.0°F32.8°C 27.0°F-2.8°C 10% 11.0 mph S17.7 kmh S 16.1 mph25.9 kmh -338605.1 mb 0.00 in0.0 mm 0.00 in/hr0.0 mm/hr 0.00 in0.0 mm
02:02 PM 90.0°F32.2°C 28.4°F-2.0°C 11% 13.0 mph SW20.9 kmh SW 10.1 mph16.3 kmh -338605.1 mb 0.00 in0.0 mm 0.00 in/hr0.0 mm/hr 0.00 in0.0 mm
02:07 PM 90.3°F32.4°C 30.7°F-0.7°C 12% 14.1 mph SW22.7 kmh SW 12.1 mph19.5 kmh -338605.1 mb 0.00 in0.0 mm 0.00 in/hr0.0 mm/hr 0.00 in0.0 mm
02:12 PM 90.7°F32.6°C 31.1°F-0.5°C 12% 13.0 mph SSW20.9 kmh SSW 12.1 mph19.5 kmh -338605.1 mb 0.00 in0.0 mm 0.00 in/hr0.0 mm/hr 0.00 in0.0 mm
02:17 PM 90.9°F32.7°C 31.3°F-0.4°C 12% 12.1 mph S19.5 kmh S 11.0 mph17.7 kmh -338605.1 mb 0.00 in0.0 mm 0.00 in/hr0.0 mm/hr 0.00 in0.0 mm
02:22 PM 90.9°F32.7°C 35.1°F1.7°C 14% 11.0 mph SW17.7 kmh SW 13.0 mph20.9 kmh -338605.1 mb 0.00 in0.0 mm 0.00 in/hr0.0 mm/hr 0.00 in0.0 mm
02:27 PM 90.7°F32.6°C 36.7°F2.6°C 15% 10.1 mph SW16.3 kmh SW 17.9 mph28.8 kmh -338605.1 mb 0.00 in0.0 mm 0.00 in/hr0.0 mm/hr 0.00 in0.0 mm
02:32 PM 91.2°F32.9°C 35.4°F1.9°C 14% 11.0 mph W17.7 kmh W 10.1 mph16.3 kmh -338605.1 mb 0.00 in0.0 mm 0.00 in/hr0.0 mm/hr 0.00 in0.0 mm
02:37 PM 91.2°F32.9°C 37.0°F2.8°C 15% 10.1 mph WSW16.3 kmh WSW 19.0 mph30.6 kmh -338605.1 mb 0.00 in0.0 mm 0.00 in/hr0.0 mm/hr 0.00 in0.0 mm
02:42 PM 91.8°F33.2°C 37.6°F3.1°C 15% 11.0 mph S17.7 kmh S 4.9 mph7.9 kmh -338605.1 mb 0.00 in0.0 mm 0.00 in/hr0.0 mm/hr 0.00 in0.0 mm
02:47 PM 91.0°F32.8°C 38.7°F3.7°C 16% 11.0 mph SSW17.7 kmh SSW 8.9 mph14.3 kmh -338605.1 mb 0.00 in0.0 mm 0.00 in/hr0.0 mm/hr 0.00 in0.0 mm
02:52 PM 91.0°F32.8°C 37.0°F2.8°C 15% 12.1 mph SW19.5 kmh SW 8.1 mph13.0 kmh -338605.1 mb 0.00 in0.0 mm 0.00 in/hr0.0 mm/hr 0.00 in0.0 mm
02:57 PM 90.9°F32.7°C 38.5°F3.6°C 16% 12.1 mph SSW19.5 kmh SSW 10.1 mph16.3 kmh -338605.1 mb 0.00 in0.0 mm 0.00 in/hr0.0 mm/hr 0.00 in0.0 mm
03:02 PM 90.7°F32.6°C 38.3°F3.5°C 16% 14.1 mph S22.7 kmh S 11.0 mph17.7 kmh -338605.1 mb 0.00 in0.0 mm 0.00 in/hr0.0 mm/hr 0.00 in0.0 mm
03:07 PM 90.3°F32.4°C 34.7°F1.5°C 14% 17.0 mph SW27.4 kmh SW 21.0 mph33.8 kmh -338605.1 mb 0.00 in0.0 mm 0.00 in/hr0.0 mm/hr 0.00 in0.0 mm
03:12 PM 90.1°F32.3°C 30.7°F-0.7°C 12% 16.1 mph WSW25.9 kmh WSW 11.0 mph17.7 kmh -338605.1 mb 0.00 in0.0 mm 0.00 in/hr0.0 mm/hr 0.00 in0.0 mm
03:17 PM 90.1°F32.3°C 32.7°F0.4°C 13% 15.0 mph SW24.1 kmh SW 10.1 mph16.3 kmh -338605.1 mb 0.00 in0.0 mm 0.00 in/hr0.0 mm/hr 0.00 in0.0 mm
03:22 PM 90.3°F32.4°C 32.9°F0.5°C 13% 13.0 mph WSW20.9 kmh WSW 16.1 mph25.9 kmh -338605.1 mb 0.00 in0.0 mm 0.00 in/hr0.0 mm/hr 0.00 in0.0 mm
03:27 PM 90.1°F32.3°C 32.7°F0.4°C 13% 11.0 mph WSW17.7 kmh WSW 11.0 mph17.7 kmh -338605.1 mb 0.00 in0.0 mm 0.00 in/hr0.0 mm/hr 0.00 in0.0 mm
03:32 PM 89.8°F32.1°C 32.4°F0.2°C 13% 14.1 mph WSW22.7 kmh WSW 13.0 mph20.9 kmh -338605.1 mb 0.00 in0.0 mm 0.00 in/hr0.0 mm/hr 0.00 in0.0 mm
03:37 PM 89.4°F31.9°C 32.2°F0.1°C 13% 16.1 mph WSW25.9 kmh WSW 19.9 mph32.0 kmh -338605.1 mb 0.00 in0.0 mm 0.00 in/hr0.0 mm/hr 0.00 in0.0 mm
03:42 PM 89.2°F31.8°C 30.0°F-1.1°C 12% 15.0 mph WSW24.1 kmh WSW 15.0 mph24.1 kmh -338605.1 mb 0.00 in0.0 mm 0.00 in/hr0.0 mm/hr 0.00 in0.0 mm
03:47 PM 88.9°F31.6°C 29.7°F-1.3°C 12% 15.0 mph WSW24.1 kmh WSW 17.9 mph28.8 kmh -338605.1 mb 0.00 in0.0 mm 0.00 in/hr0.0 mm/hr 0.00 in0.0 mm
03:52 PM 88.5°F31.4°C 31.5°F-0.3°C 13% 16.1 mph SW25.9 kmh SW 23.0 mph37.0 kmh -338605.1 mb 0.00 in0.0 mm 0.00 in/hr0.0 mm/hr 0.00 in0.0 mm
03:57 PM 88.9°F31.6°C 33.6°F0.9°C 14% 15.0 mph SW24.1 kmh SW 12.1 mph19.5 kmh -338605.1 mb 0.00 in0.0 mm 0.00 in/hr0.0 mm/hr 0.00 in0.0 mm